Time;durP1;ratioP1;P1;durP2;ratioP2;P2;SDS_P1;SDS_P2;PMS_P1;PMS_P2;Temp;Humidity;BMP_temperature;BMP_pressure;BME280_temperature;BME280_humidity;BME280_pressure;Samples;Min_cycle;Max_cycle;Signal;HPM_P1;HPM_P2
2023/01/20 00:00:41;;;;;;;2.25;0.45;;;18.20;64.10;;;;;;4495533;32;20135;-67
2023/01/20 00:03:18;;;;;;;2.15;0.70;;;18.20;64.20;;;;;;4496950;32;20128;-68
2023/01/20 00:05:50;;;;;;;1.95;0.73;;;18.20;64.20;;;;;;4495408;32;20300;-68
2023/01/20 00:08:16;;;;;;;1.75;0.60;;;18.20;64.20;;;;;;4496883;32;20274;-67
2023/01/20 00:10:42;;;;;;;1.48;0.60;;;18.20;64.20;;;;;;4495941;32;20210;-66
2023/01/20 00:13:08;;;;;;;1.90;0.50;;;18.10;64.10;;;;;;4496284;32;20175;-67
2023/01/20 00:15:34;;;;;;;1.10;0.43;;;18.10;64.10;;;;;;4496669;32;20073;-66
2023/01/20 00:18:00;;;;;;;2.88;0.63;;;18.10;64.10;;;;;;4495331;32;20109;-67
2023/01/20 00:20:26;;;;;;;1.35;0.60;;;18.10;64.10;;;;;;4482603;32;20136;-67
2023/01/20 00:22:52;;;;;;;1.15;0.47;;;18.10;64.10;;;;;;4495265;32;20544;-67
2023/01/20 00:25:18;;;;;;;1.60;0.52;;;18.10;64.00;;;;;;4490687;31;20133;-67
2023/01/20 00:27:45;;;;;;;1.58;0.47;;;18.00;64.00;;;;;;4470453;31;20105;-66
2023/01/20 00:30:12;;;;;;;1.63;0.60;;;18.00;64.10;;;;;;4479865;31;20168;-67
2023/01/20 00:32:44;;;;;;;0.90;0.50;;;18.00;64.10;;;;;;4499449;31;20210;-66
2023/01/20 00:35:13;;;;;;;1.00;0.43;;;18.00;64.20;;;;;;4481536;32;20168;-67
2023/01/20 00:37:42;;;;;;;1.20;0.57;;;18.00;64.20;;;;;;4483977;32;20194;-66
2023/01/20 00:40:09;;;;;;;0.70;0.30;;;18.00;64.20;;;;;;4482445;31;20144;-67
2023/01/20 00:42:34;;;;;;;1.33;0.50;;;18.00;64.20;;;;;;4483721;32;20128;-67
2023/01/20 00:45:00;;;;;;;1.63;0.70;;;18.00;64.10;;;;;;4468684;32;20123;-67
2023/01/20 00:47:26;;;;;;;1.08;0.47;;;18.00;64.20;;;;;;4481900;32;20132;-67
2023/01/20 00:49:52;;;;;;;0.65;0.40;;;18.00;64.20;;;;;;4483786;31;20093;-66
2023/01/20 00:52:18;;;;;;;1.08;0.40;;;17.90;64.00;;;;;;4481251;32;20210;-67
2023/01/20 00:54:44;;;;;;;1.35;0.43;;;17.90;64.00;;;;;;4483411;31;20141;-67
2023/01/20 00:57:11;;;;;;;0.70;0.30;;;17.90;64.10;;;;;;4482233;31;20132;-67
2023/01/20 00:59:37;;;;;;;0.75;0.50;;;17.90;64.10;;;;;;4482525;32;20592;-67
2023/01/20 01:02:03;;;;;;;0.90;0.30;;;17.90;64.10;;;;;;4481502;31;20137;-66
2023/01/20 01:04:29;;;;;;;1.90;0.40;;;17.90;64.00;;;;;;4483405;31;20113;-67
2023/01/20 01:06:56;;;;;;;1.65;0.90;;;17.90;64.10;;;;;;4476866;32;20095;-66
2023/01/20 01:09:22;;;;;;;1.17;0.57;;;17.80;64.10;;;;;;4476831;32;20527;-67
2023/01/20 01:11:48;;;;;;;2.05;0.60;;;17.80;64.10;;;;;;4483263;32;20132;-67
2023/01/20 01:14:15;;;;;;;1.02;0.50;;;17.80;64.10;;;;;;4479623;32;20137;-67
2023/01/20 01:16:41;;;;;;;0.93;0.43;;;17.80;64.00;;;;;;4479371;32;20183;-67
2023/01/20 01:19:07;;;;;;;1.10;0.50;;;17.80;64.00;;;;;;4483267;31;20125;-67
2023/01/20 01:21:33;;;;;;;1.05;0.50;;;17.80;64.00;;;;;;4484130;31;20124;-66
2023/01/20 01:23:59;;;;;;;1.42;0.40;;;17.80;64.00;;;;;;4496105;31;20620;-67
2023/01/20 01:26:25;;;;;;;0.73;0.40;;;17.80;64.00;;;;;;4482992;31;20116;-67
2023/01/20 01:28:51;;;;;;;1.40;0.68;;;17.70;64.00;;;;;;4481842;31;20172;-66
2023/01/20 01:31:20;;;;;;;1.90;0.60;;;17.70;64.10;;;;;;4482766;31;20141;-67
2023/01/20 01:33:47;;;;;;;1.05;0.40;;;17.70;64.10;;;;;;4484022;32;20140;-67
2023/01/20 01:36:16;;;;;;;1.75;0.50;;;17.70;64.10;;;;;;4481090;32;20156;-67
2023/01/20 01:38:43;;;;;;;1.02;0.50;;;17.70;64.10;;;;;;4483702;32;20145;-67
2023/01/20 01:41:11;;;;;;;1.02;0.35;;;17.70;64.10;;;;;;4484071;32;20450;-66
2023/01/20 01:43:38;;;;;;;0.77;0.40;;;17.60;64.10;;;;;;4482597;32;20125;-67
2023/01/20 01:46:05;;;;;;;0.40;0.35;;;17.60;64.20;;;;;;4484051;31;20149;-67
2023/01/20 01:48:38;;;;;;;1.10;0.40;;;17.60;64.30;;;;;;4481390;32;20132;-67
2023/01/20 01:51:07;;;;;;;0.70;0.43;;;17.60;64.30;;;;;;4482877;32;20141;-67
2023/01/20 01:53:41;;;;;;;1.10;0.50;;;17.60;64.30;;;;;;4483181;31;20180;-66
2023/01/20 01:56:08;;;;;;;1.52;0.30;;;17.60;65.20;;;;;;4482860;32;20128;-67
2023/01/20 01:58:38;;;;;;;1.08;0.40;;;17.50;64.30;;;;;;4483859;31;20129;-66
2023/01/20 02:01:09;;;;;;;1.38;0.50;;;17.50;64.30;;;;;;4482324;31;20141;-67
2023/01/20 02:03:53;;;;;;;1.73;0.68;;;17.50;64.30;;;;;;4482901;32;20101;-67
2023/01/20 02:06:21;;;;;;;1.08;0.50;;;17.50;64.20;;;;;;4482733;32;20140;-66
2023/01/20 02:08:48;;;;;;;0.57;0.30;;;17.50;64.40;;;;;;4481999;32;20133;-67
2023/01/20 02:11:13;;;;;;;0.70;0.20;;;17.50;64.40;;;;;;4495594;31;20096;-66
2023/01/20 02:13:39;;;;;;;1.33;0.50;;;17.50;64.40;;;;;;4494419;31;20192;-67
2023/01/20 02:16:24;;;;;;;0.40;0.20;;;17.50;64.40;;;;;;4483606;31;20136;-66
2023/01/20 02:19:13;;;;;;;0.80;0.50;;;17.50;64.40;;;;;;4478659;32;20129;-67
2023/01/20 02:22:16;;;;;;;0.60;0.32;;;17.40;64.40;;;;;;4473973;32;20156;-67
2023/01/20 02:25:20;;;;;;;1.00;0.50;;;17.40;64.30;;;;;;4483322;31;20184;-66
2023/01/20 02:28:07;;;;;;;0.88;0.50;;;17.40;64.30;;;;;;4481306;32;20171;-66
2023/01/20 02:30:51;;;;;;;0.43;0.35;;;17.40;64.30;;;;;;4481174;32;20601;-67
2023/01/20 02:33:26;;;;;;;0.60;0.30;;;17.40;64.30;;;;;;4473044;32;20141;-66
2023/01/20 02:35:58;;;;;;;1.20;0.50;;;17.40;64.40;;;;;;4480611;32;20141;-66
2023/01/20 02:38:36;;;;;;;0.57;0.22;;;17.40;64.40;;;;;;4483204;31;20137;-66
2023/01/20 02:41:12;;;;;;;1.55;0.50;;;17.30;64.40;;;;;;4494450;31;20481;-66
2023/01/20 02:44:00;;;;;;;1.83;0.45;;;17.30;64.30;;;;;;4483477;31;20248;-66
2023/01/20 02:46:35;;;;;;;1.75;0.25;;;17.30;64.40;;;;;;4483146;32;20133;-66
2023/01/20 02:49:33;;;;;;;0.75;0.50;;;17.30;64.40;;;;;;4481604;32;20156;-66
2023/01/20 02:52:02;;;;;;;1.50;0.50;;;17.30;64.30;;;;;;4481876;32;20493;-66
2023/01/20 02:54:31;;;;;;;0.52;0.25;;;17.30;64.40;;;;;;4482151;32;20129;-66
2023/01/20 02:57:01;;;;;;;0.63;0.30;;;17.30;64.40;;;;;;4481180;32;20132;-66
2023/01/20 02:59:33;;;;;;;0.50;0.30;;;17.30;64.40;;;;;;4483039;32;20195;-66
2023/01/20 03:02:21;;;;;;;1.20;0.40;;;17.20;64.40;;;;;;4481801;32;20121;-66
2023/01/20 03:05:03;;;;;;;0.38;0.20;;;17.20;64.30;;;;;;4481813;32;20136;-67
2023/01/20 03:07:34;;;;;;;0.60;0.22;;;17.20;64.40;;;;;;4483057;31;20199;-66
2023/01/20 03:10:04;;;;;;;0.75;0.40;;;17.20;64.40;;;;;;4481292;31;20151;-66
2023/01/20 03:12:53;;;;;;;0.77;0.40;;;17.20;64.40;;;;;;4482997;32;20133;-67
2023/01/20 03:15:24;;;;;;;0.30;0.30;;;17.20;64.40;;;;;;4482607;31;20190;-66
2023/01/20 03:17:51;;;;;;;0.88;0.40;;;17.20;64.40;;;;;;4481506;32;20202;-67
2023/01/20 03:20:17;;;;;;;0.47;0.30;;;17.20;64.40;;;;;;4482694;31;20117;-66
2023/01/20 03:22:43;;;;;;;0.57;0.30;;;17.20;64.40;;;;;;4481129;32;20133;-67
2023/01/20 03:25:12;;;;;;;0.47;0.20;;;17.20;64.30;;;;;;4494456;31;20155;-66
2023/01/20 03:27:38;;;;;;;0.43;0.30;;;17.20;64.30;;;;;;4481483;32;20113;-66
2023/01/20 03:30:15;;;;;;;0.57;0.28;;;17.20;64.20;;;;;;4482189;31;20113;-67
2023/01/20 03:32:46;;;;;;;0.88;0.30;;;17.20;64.20;;;;;;4482424;31;20092;-66
2023/01/20 03:35:14;;;;;;;1.35;0.40;;;17.20;64.10;;;;;;4482231;31;20137;-67
2023/01/20 03:37:42;;;;;;;0.85;0.38;;;17.30;64.10;;;;;;4498195;31;20128;-66
2023/01/20 03:40:09;;;;;;;0.50;0.32;;;17.30;64.00;;;;;;4496704;31;20128;-67
2023/01/20 03:42:52;;;;;;;0.55;0.30;;;17.30;64.00;;;;;;4498053;31;20238;-67
2023/01/20 03:45:29;;;;;;;0.65;0.20;;;17.30;63.90;;;;;;4492659;31;20125;-66
2023/01/20 03:48:28;;;;;;;1.50;0.40;;;17.30;63.90;;;;;;4496322;31;20137;-66
2023/01/20 03:51:15;;;;;;;0.40;0.20;;;17.30;63.80;;;;;;4497213;31;20421;-66
2023/01/20 03:53:50;;;;;;;0.60;0.40;;;17.30;63.70;;;;;;4497114;31;20234;-66
2023/01/20 03:56:36;;;;;;;0.65;0.30;;;17.30;63.60;;;;;;4496138;32;20133;-66
2023/01/20 03:59:10;;;;;;;0.93;0.22;;;17.40;63.60;;;;;;4496396;31;20138;-66
2023/01/20 04:01:38;;;;;;;0.32;0.25;;;17.40;63.60;;;;;;4498976;31;20117;-66
2023/01/20 04:04:13;;;;;;;0.32;0.25;;;17.40;63.50;;;;;;4497732;31;20163;-67
2023/01/20 04:06:40;;;;;;;0.52;0.30;;;17.30;63.40;;;;;;4500283;31;20151;-67
2023/01/20 04:09:18;;;;;;;0.40;0.30;;;17.30;63.30;;;;;;4496154;31;20182;-67
2023/01/20 04:11:44;;;;;;;0.63;0.30;;;17.40;63.30;;;;;;4483934;31;20137;-67
2023/01/20 04:14:10;;;;;;;0.30;0.20;;;17.40;64.10;;;;;;4498460;31;20135;-68
2023/01/20 04:16:37;;;;;;;0.45;0.30;;;17.40;63.20;;;;;;4499985;31;20152;-66
2023/01/20 04:19:02;;;;;;;1.15;0.50;;;17.40;63.20;;;;;;4482070;32;20259;-68
2023/01/20 04:21:36;;;;;;;0.60;0.40;;;17.40;63.20;;;;;;4491735;31;20501;-66
2023/01/20 04:24:28;;;;;;;0.85;0.32;;;17.40;63.10;;;;;;4494771;31;20076;-66
2023/01/20 04:26:54;;;;;;;0.30;0.15;;;17.40;63.00;;;;;;4478155;32;20129;-67
2023/01/20 04:29:20;;;;;;;0.52;0.38;;;17.40;63.10;;;;;;4496035;31;20132;-67
2023/01/20 04:31:46;;;;;;;0.73;0.30;;;17.40;63.00;;;;;;4494081;31;20489;-66
2023/01/20 04:34:15;;;;;;;0.60;0.40;;;17.40;63.00;;;;;;4484499;31;20152;-67
2023/01/20 04:36:41;;;;;;;0.82;0.47;;;17.40;62.90;;;;;;4482265;31;20077;-67
2023/01/20 04:39:08;;;;;;;0.95;0.40;;;17.40;62.90;;;;;;4499593;31;20148;-67
2023/01/20 04:41:35;;;;;;;0.77;0.20;;;17.40;62.90;;;;;;4498342;31;20570;-66
2023/01/20 04:44:01;;;;;;;0.55;0.28;;;17.40;62.90;;;;;;4483938;31;20116;-67
2023/01/20 04:46:27;;;;;;;0.60;0.30;;;17.40;62.90;;;;;;4499432;31;20131;-66
2023/01/20 04:48:53;;;;;;;0.50;0.30;;;17.40;62.90;;;;;;4484216;31;20112;-67
2023/01/20 04:51:19;;;;;;;0.47;0.32;;;17.40;63.70;;;;;;4485117;31;20136;-67
2023/01/20 04:53:45;;;;;;;0.60;0.35;;;17.40;62.80;;;;;;4483340;32;20120;-67
2023/01/20 04:56:12;;;;;;;0.40;0.20;;;17.40;62.80;;;;;;4458046;32;20135;-66
2023/01/20 04:58:39;;;;;;;0.30;0.20;;;17.40;62.70;;;;;;4497449;31;20135;-66
2023/01/20 05:01:04;;;;;;;0.85;0.38;;;17.40;62.80;;;;;;4498098;31;20144;-67
2023/01/20 05:03:32;;;;;;;0.60;0.50;;;17.40;62.70;;;;;;4486023;31;20128;-67
2023/01/20 05:05:58;;;;;;;0.80;0.30;;;17.40;62.80;;;;;;4484520;31;20136;-67
2023/01/20 05:08:24;;;;;;;0.70;0.20;;;17.40;62.80;;;;;;4485390;31;20127;-67
2023/01/20 05:10:50;;;;;;;0.32;0.30;;;17.40;62.80;;;;;;4499294;31;20113;-67
2023/01/20 05:13:16;;;;;;;0.47;0.30;;;17.40;62.70;;;;;;4484640;31;20164;-67
2023/01/20 05:15:43;;;;;;;0.20;0.20;;;17.40;62.80;;;;;;4499810;31;20115;-66
2023/01/20 05:18:09;;;;;;;0.85;0.38;;;17.40;62.90;;;;;;4498316;31;20636;-67
2023/01/20 05:20:35;;;;;;;0.98;0.40;;;17.40;62.80;;;;;;4499700;31;20194;-67
2023/01/20 05:23:01;;;;;;;0.30;0.28;;;17.40;62.80;;;;;;4484130;31;20194;-66
2023/01/20 05:25:27;;;;;;;0.43;0.20;;;17.40;62.80;;;;;;4498601;31;20352;-67
2023/01/20 05:27:53;;;;;;;0.70;0.30;;;17.40;62.80;;;;;;4498479;31;20597;-66
2023/01/20 05:30:19;;;;;;;0.80;0.50;;;17.40;62.80;;;;;;4498057;31;20139;-66
2023/01/20 05:32:47;;;;;;;0.50;0.47;;;17.30;62.80;;;;;;4484584;31;20121;-66
2023/01/20 05:35:13;;;;;;;0.40;0.38;;;17.40;62.80;;;;;;4497457;31;20176;-66
2023/01/20 05:37:39;;;;;;;0.63;0.30;;;17.30;62.80;;;;;;4484498;31;20140;-67
2023/01/20 05:40:06;;;;;;;0.50;0.35;;;17.30;62.70;;;;;;4470189;31;20117;-66
2023/01/20 05:42:32;;;;;;;0.55;0.30;;;17.30;62.80;;;;;;4498599;31;20125;-67
2023/01/20 05:44:59;;;;;;;0.32;0.20;;;17.40;62.80;;;;;;4480114;32;20140;-66
2023/01/20 05:47:24;;;;;;;0.38;0.20;;;17.30;62.80;;;;;;4485723;31;20132;-67
2023/01/20 05:49:50;;;;;;;0.47;0.32;;;17.40;62.80;;;;;;4469084;31;20243;-67
2023/01/20 05:52:16;;;;;;;1.13;0.40;;;17.30;62.70;;;;;;4472013;32;20121;-67
2023/01/20 05:54:42;;;;;;;0.57;0.20;;;17.30;62.80;;;;;;4480629;31;20147;-66
2023/01/20 05:57:08;;;;;;;0.40;0.30;;;17.30;62.80;;;;;;4463625;31;20187;-67
2023/01/20 05:59:34;;;;;;;0.50;0.30;;;17.30;62.80;;;;;;4486340;31;20553;-67
2023/01/20 06:02:00;;;;;;;0.43;0.30;;;17.30;62.70;;;;;;4477251;32;20129;-66
2023/01/20 06:04:26;;;;;;;0.35;0.30;;;17.30;62.80;;;;;;4485691;31;20192;-67
2023/01/20 06:07:03;;;;;;;0.30;0.30;;;17.30;62.80;;;;;;4471425;31;20195;-66
2023/01/20 06:09:29;;;;;;;0.40;0.25;;;17.30;62.80;;;;;;4475567;31;20120;-67
2023/01/20 06:11:55;;;;;;;0.57;0.40;;;17.30;62.80;;;;;;4490735;31;20330;-66
2023/01/20 06:14:21;;;;;;;0.40;0.28;;;17.30;62.80;;;;;;4483857;31;20275;-66
2023/01/20 06:16:47;;;;;;;1.10;0.40;;;17.30;62.80;;;;;;4476976;32;20139;-67
2023/01/20 06:19:18;;;;;;;0.45;0.35;;;17.30;62.70;;;;;;4472106;31;20125;-66
2023/01/20 06:21:46;;;;;;;0.30;0.20;;;17.30;63.00;;;;;;4484907;31;20182;-67
2023/01/20 06:24:12;;;;;;;1.20;0.50;;;17.30;63.70;;;;;;4487600;31;20128;-66
2023/01/20 06:26:43;;;;;;;0.30;0.20;;;17.30;62.80;;;;;;4484405;31;20247;-67
2023/01/20 06:29:09;;;;;;;0.65;0.40;;;17.30;62.80;;;;;;4488247;31;20135;-66
2023/01/20 06:31:46;;;;;;;0.68;0.30;;;17.30;62.80;;;;;;4462243;32;20144;-66
2023/01/20 06:34:12;;;;;;;0.93;0.30;;;17.30;62.80;;;;;;4487585;31;20381;-67
2023/01/20 06:36:38;;;;;;;0.40;0.30;;;17.20;62.70;;;;;;4489138;31;20505;-66
2023/01/20 06:39:04;;;;;;;0.47;0.20;;;17.30;62.70;;;;;;4497877;31;20533;-67
2023/01/20 06:41:30;;;;;;;1.05;0.50;;;17.20;62.70;;;;;;4498948;31;20139;-66
2023/01/20 06:44:02;;;;;;;0.38;0.30;;;17.20;62.70;;;;;;4497581;31;20125;-67
2023/01/20 06:46:29;;;;;;;0.55;0.25;;;17.20;62.70;;;;;;4498768;31;20151;-66
2023/01/20 06:48:59;;;;;;;0.50;0.30;;;17.30;62.80;;;;;;4496847;31;20132;-66
2023/01/20 06:51:27;;;;;;;0.30;0.30;;;17.20;62.70;;;;;;4497389;31;20120;-67
2023/01/20 06:53:53;;;;;;;0.43;0.40;;;17.20;62.70;;;;;;4498771;31;20161;-66
2023/01/20 06:56:20;;;;;;;0.50;0.30;;;17.20;62.70;;;;;;4496300;31;20700;-67
2023/01/20 06:58:47;;;;;;;0.20;0.20;;;17.20;62.70;;;;;;4486165;31;20562;-66
2023/01/20 07:01:24;;;;;;;0.40;0.40;;;17.20;62.70;;;;;;4497185;31;20150;-66
2023/01/20 07:03:51;;;;;;;0.75;0.30;;;17.20;62.70;;;;;;4498400;31;20124;-67
2023/01/20 07:06:23;;;;;;;0.43;0.25;;;17.20;62.70;;;;;;4497799;31;20269;-66
2023/01/20 07:08:50;;;;;;;0.38;0.35;;;17.20;62.70;;;;;;4497679;31;20136;-67
2023/01/20 07:11:15;;;;;;;0.40;0.30;;;17.20;62.70;;;;;;4498704;31;20151;-66
2023/01/20 07:13:41;;;;;;;0.55;0.40;;;17.20;62.70;;;;;;4497105;31;20623;-67
2023/01/20 07:16:08;;;;;;;0.35;0.20;;;17.20;62.70;;;;;;4498583;31;20151;-66
2023/01/20 07:18:34;;;;;;;0.40;0.30;;;17.20;62.80;;;;;;4482662;31;20167;-66
2023/01/20 07:21:01;;;;;;;0.20;0.20;;;17.20;62.80;;;;;;4498398;31;20234;-67
2023/01/20 07:23:30;;;;;;;0.60;0.45;;;17.20;62.80;;;;;;4497771;31;20465;-66
2023/01/20 07:26:07;;;;;;;0.30;0.30;;;17.20;62.70;;;;;;4497191;31;20170;-67
2023/01/20 07:28:35;;;;;;;0.47;0.30;;;17.20;62.70;;;;;;4484437;31;20145;-66
2023/01/20 07:31:05;;;;;;;0.47;0.38;;;17.20;62.80;;;;;;4482520;31;20136;-67
2023/01/20 07:33:35;;;;;;;0.53;0.40;;;17.10;62.70;;;;;;4498475;31;20173;-66
2023/01/20 07:36:05;;;;;;;0.70;0.40;;;17.20;62.70;;;;;;4496782;31;20260;-67
2023/01/20 07:38:49;;;;;;;0.70;0.40;;;17.20;62.70;;;;;;4485078;31;20217;-66
2023/01/20 07:41:18;;;;;;;0.50;0.43;;;17.20;62.70;;;;;;4498224;31;20279;-66
2023/01/20 07:43:49;;;;;;;0.30;0.28;;;17.10;62.70;;;;;;4496849;31;20579;-67
2023/01/20 07:46:16;;;;;;;0.50;0.40;;;17.10;62.60;;;;;;4498110;31;20493;-67
2023/01/20 07:48:42;;;;;;;0.50;0.43;;;17.10;62.70;;;;;;4497006;31;20136;-67
2023/01/20 07:51:10;;;;;;;0.50;0.40;;;17.10;62.70;;;;;;4498087;31;20213;-67
2023/01/20 07:53:45;;;;;;;0.50;0.40;;;17.10;62.70;;;;;;4484409;31;20133;-66
2023/01/20 07:56:17;;;;;;;0.50;0.40;;;17.10;62.70;;;;;;4482572;32;20136;-67
2023/01/20 07:58:44;;;;;;;1.45;0.52;;;17.10;62.70;;;;;;4484160;32;20222;-66
2023/01/20 08:01:18;;;;;;;0.47;0.47;;;17.10;62.70;;;;;;4482458;32;20132;-65
2023/01/20 08:03:45;;;;;;;0.88;0.40;;;17.10;62.70;;;;;;4498082;32;20148;-66
2023/01/20 08:06:13;;;;;;;1.48;0.52;;;17.10;62.80;;;;;;4493867;32;20147;-65
2023/01/20 08:09:00;;;;;;;1.98;0.80;;;17.00;63.00;;;;;;4496521;32;20124;-67
2023/01/20 08:11:26;;;;;;;1.27;0.50;;;17.10;63.40;;;;;;4496791;32;20604;-66
2023/01/20 08:13:56;;;;;;;1.27;0.57;;;17.10;63.60;;;;;;4493599;32;20162;-66
2023/01/20 08:16:22;;;;;;;2.13;0.90;;;17.10;63.80;;;;;;4496565;32;20127;-66
2023/01/20 08:18:51;;;;;;;1.77;0.52;;;17.20;63.50;;;;;;4493874;32;20133;-66
2023/01/20 08:21:22;;;;;;;0.50;0.30;;;17.30;63.30;;;;;;4481991;32;20138;-67
2023/01/20 08:23:49;;;;;;;0.63;0.38;;;17.40;63.00;;;;;;4494775;32;20625;-66
2023/01/20 08:26:15;;;;;;;1.90;0.60;;;17.70;62.70;;;;;;4481072;32;20195;-67
2023/01/20 08:28:42;;;;;;;1.52;0.63;;;17.70;63.20;;;;;;4495560;32;20123;-67
2023/01/20 08:31:10;;;;;;;0.50;0.40;;;17.80;61.90;;;;;;4477095;32;20132;-67
2023/01/20 08:33:38;;;;;;;0.65;0.40;;;18.00;61.60;;;;;;4491635;32;20143;-67
2023/01/20 08:36:15;;;;;;;0.90;0.50;;;18.10;61.30;;;;;;4494030;32;20187;-66
2023/01/20 08:38:42;;;;;;;2.38;0.50;;;18.20;60.90;;;;;;4497229;32;20136;-66
2023/01/20 08:41:15;;;;;;;0.93;0.50;;;18.40;60.50;;;;;;4497799;32;20081;-66
2023/01/20 08:43:41;;;;;;;1.43;0.50;;;18.50;60.20;;;;;;4496424;32;20499;-66
2023/01/20 08:46:12;;;;;;;2.17;0.43;;;18.70;59.90;;;;;;4484703;31;20186;-66
2023/01/20 08:48:40;;;;;;;1.48;0.40;;;18.80;59.60;;;;;;4499473;31;20120;-66
2023/01/20 08:51:15;;;;;;;1.50;0.40;;;18.90;59.40;;;;;;4499380;31;20156;-67
2023/01/20 08:53:42;;;;;;;1.35;0.40;;;19.10;59.10;;;;;;4487925;31;20089;-66
2023/01/20 08:56:09;;;;;;;0.77;0.43;;;19.20;58.70;;;;;;4499123;31;20125;-67
2023/01/20 08:58:35;;;;;;;1.25;0.65;;;19.30;58.40;;;;;;4486583;31;20561;-66
2023/01/20 09:01:06;;;;;;;0.47;0.32;;;19.40;58.20;;;;;;4498973;31;20124;-66
2023/01/20 09:03:32;;;;;;;1.10;0.50;;;19.40;58.00;;;;;;4499495;31;20274;-66
2023/01/20 09:06:01;;;;;;;0.95;0.50;;;19.40;57.90;;;;;;4498336;31;20123;-66
2023/01/20 09:08:28;;;;;;;12.18;0.60;;;19.40;57.90;;;;;;4498540;31;20492;-66
2023/01/20 09:11:04;;;;;;;2.55;0.50;;;19.50;58.10;;;;;;4473656;31;20085;-66
2023/01/20 09:13:30;;;;;;;0.60;0.45;;;19.50;58.20;;;;;;4497830;31;20377;-67
2023/01/20 09:15:56;;;;;;;1.02;0.40;;;19.40;58.30;;;;;;4497374;31;20201;-67
2023/01/20 09:18:22;;;;;;;3.22;0.70;;;19.40;58.40;;;;;;4496394;31;20222;-66
2023/01/20 09:20:48;;;;;;;0.88;0.50;;;19.50;58.60;;;;;;4497153;31;20147;-66
2023/01/20 09:23:14;;;;;;;1.75;0.65;;;19.40;58.60;;;;;;4484933;31;20270;-67
2023/01/20 09:25:40;;;;;;;1.17;0.50;;;19.50;58.80;;;;;;4491916;31;20908;-66
2023/01/20 09:28:06;;;;;;;0.85;0.57;;;19.50;58.80;;;;;;4497368;31;20159;-66
2023/01/20 09:30:32;;;;;;;2.85;0.60;;;19.50;58.70;;;;;;4493756;31;20145;-67
2023/01/20 09:32:58;;;;;;;1.63;0.60;;;19.50;58.80;;;;;;4484343;31;20124;-66
2023/01/20 09:35:25;;;;;;;0.65;0.52;;;19.50;58.80;;;;;;4495897;31;20137;-67
2023/01/20 09:43:55;;;;;;;2.80;0.40;;;19.50;59.00;;;;;;4495010;31;20375;-66
2023/01/20 09:46:39;;;;;;;3.28;0.40;;;19.50;59.10;;;;;;4497394;31;20167;-67
2023/01/20 09:54:57;;;;;;;2.70;0.50;;;19.50;59.20;;;;;;4497979;31;20225;-66
2023/01/20 09:57:23;;;;;;;;;;;19.50;59.30;;;;;;4482411;31;20124;-66
2023/01/20 10:00:04;;;;;;;1.38;0.30;;;19.50;59.40;;;;;;4497356;31;20070;-67
2023/01/20 10:02:34;;;;;;;1.20;0.57;;;19.50;59.40;;;;;;4498257;31;20117;-67
2023/01/20 10:05:18;;;;;;;0.70;0.40;;;19.50;59.40;;;;;;4497096;31;20140;-67
2023/01/20 10:08:15;;;;;;;0.77;0.40;;;19.50;59.50;;;;;;4497609;31;20188;-67
2023/01/20 10:10:51;;;;;;;0.55;0.45;;;19.50;59.50;;;;;;4496907;31;20556;-67
2023/01/20 10:13:25;;;;;;;1.77;0.52;;;19.50;60.40;;;;;;4496620;31;20250;-67
2023/01/20 10:15:55;;;;;;;2.38;0.57;;;19.50;59.60;;;;;;4482635;31;20186;-67
2023/01/20 10:18:41;;;;;;;0.88;0.50;;;19.60;59.60;;;;;;4497564;31;20283;-67
2023/01/20 10:21:40;;;;;;;1.00;0.30;;;19.50;59.70;;;;;;4498035;31;20270;-68
2023/01/20 10:24:15;;;;;;;1.10;0.40;;;19.50;59.70;;;;;;4498540;31;20133;-67
2023/01/20 10:27:03;;;;;;;0.75;0.57;;;19.50;59.80;;;;;;4494464;31;20125;-69
2023/01/20 10:29:38;;;;;;;2.80;0.50;;;19.50;59.90;;;;;;4493562;31;20211;-69
2023/01/20 10:32:20;;;;;;;0.75;0.50;;;19.40;60.10;;;;;;4483726;31;20651;-68
2023/01/20 10:34:49;;;;;;;0.93;0.60;;;19.30;60.20;;;;;;4486444;31;20132;-68
2023/01/20 10:37:15;;;;;;;1.50;0.50;;;19.20;60.40;;;;;;4484597;31;20128;-67
2023/01/20 10:39:53;;;;;;;0.80;0.70;;;19.10;60.60;;;;;;4480248;31;20133;-67
2023/01/20 10:42:19;;;;;;;2.90;0.77;;;19.00;60.90;;;;;;4484452;31;20124;-67
2023/01/20 10:44:48;;;;;;;1.73;0.80;;;19.00;61.10;;;;;;4489293;31;20563;-67
2023/01/20 10:47:34;;;;;;;2.97;0.70;;;18.90;61.20;;;;;;4468201;31;20325;-66
2023/01/20 10:50:27;;;;;;;1.90;0.63;;;18.80;61.40;;;;;;4477535;31;20175;-66
2023/01/20 10:53:23;;;;;;;1.83;0.75;;;18.80;61.60;;;;;;4468201;31;20171;-66
2023/01/20 10:56:01;;;;;;;1.08;0.70;;;18.70;61.70;;;;;;4492914;31;20271;-66
2023/01/20 10:58:29;;;;;;;2.47;0.82;;;18.70;61.90;;;;;;4488982;31;20149;-66
2023/01/20 11:00:58;;;;;;;0.60;0.60;;;18.70;61.90;;;;;;4476287;31;20255;-66
2023/01/20 11:03:25;;;;;;;1.92;0.80;;;18.80;61.80;;;;;;4492906;31;20136;-66
2023/01/20 11:05:51;;;;;;;1.40;0.77;;;18.90;61.70;;;;;;4476903;31;20124;-66
2023/01/20 11:08:21;;;;;;;1.52;0.82;;;19.00;62.40;;;;;;4469630;31;20278;-66
2023/01/20 11:10:51;;;;;;;3.15;0.80;;;19.10;61.30;;;;;;4492358;31;20222;-66
2023/01/20 11:13:17;;;;;;;1.65;0.80;;;19.20;61.10;;;;;;4474900;32;20218;-67
2023/01/20 11:15:46;;;;;;;2.58;0.90;;;19.30;60.90;;;;;;4487520;31;20140;-66
2023/01/20 11:18:15;;;;;;;2.83;0.80;;;19.40;60.70;;;;;;4489753;31;20124;-67
2023/01/20 11:20:56;;;;;;;1.70;0.73;;;19.50;60.50;;;;;;4478991;31;20462;-66
2023/01/20 11:23:38;;;;;;;3.03;0.80;;;19.60;60.40;;;;;;4483283;31;20285;-66
2023/01/20 11:26:15;;;;;;;1.90;0.93;;;19.70;60.30;;;;;;4482055;31;20313;-66
2023/01/20 11:28:59;;;;;;;1.98;0.88;;;19.70;60.20;;;;;;4480481;31;20374;-67
2023/01/20 11:31:53;;;;;;;1.25;0.80;;;19.70;60.20;;;;;;4496103;31;20508;-67
2023/01/20 11:34:26;;;;;;;1.08;0.70;;;19.80;60.20;;;;;;4494142;31;20278;-67
2023/01/20 11:37:04;;;;;;;2.45;0.88;;;19.80;60.30;;;;;;4483060;31;20143;-67
2023/01/20 11:39:35;;;;;;;1.77;1.00;;;19.80;60.30;;;;;;4480881;31;20147;-67
2023/01/20 11:42:24;;;;;;;1.95;0.73;;;19.80;60.40;;;;;;4496985;31;20247;-67
2023/01/20 11:44:56;;;;;;;2.85;1.30;;;19.80;60.40;;;;;;4481574;31;20556;-67
2023/01/20 11:47:22;;;;;;;1.83;1.10;;;19.80;60.50;;;;;;4481496;31;20311;-67
2023/01/20 11:50:03;;;;;;;2.22;1.08;;;19.80;60.60;;;;;;4496491;31;20616;-67
2023/01/20 11:52:44;;;;;;;1.50;1.10;;;19.80;60.60;;;;;;4494697;31;20200;-68
2023/01/20 11:55:18;;;;;;;1.65;0.80;;;19.80;60.70;;;;;;4494900;31;20564;-67
2023/01/20 11:57:43;;;;;;;2.45;1.10;;;19.80;60.70;;;;;;4481864;32;20124;-68
2023/01/20 12:00:35;;;;;;;4.40;1.00;;;19.80;60.70;;;;;;4495577;32;20139;-68
2023/01/20 12:03:10;;;;;;;3.65;1.10;;;19.80;60.70;;;;;;4496047;32;20204;-69
2023/01/20 12:05:48;;;;;;;2.58;1.10;;;19.80;60.70;;;;;;4493622;32;20137;-68
2023/01/20 12:08:25;;;;;;;1.67;1.00;;;19.80;60.80;;;;;;4496451;32;20148;-68
2023/01/20 12:10:52;;;;;;;4.13;1.00;;;19.80;60.70;;;;;;4493410;32;20125;-69
2023/01/20 12:13:29;;;;;;;1.95;1.08;;;19.80;60.70;;;;;;4493906;32;20325;-69
2023/01/20 12:16:00;;;;;;;2.78;1.23;;;19.80;60.60;;;;;;4495047;32;20301;-68
2023/01/20 12:18:28;;;;;;;4.53;1.25;;;19.80;60.60;;;;;;4493521;32;20121;-67
2023/01/20 12:21:17;;;;;;;1.85;1.10;;;19.80;60.60;;;;;;4480290;31;20135;-68
2023/01/20 12:24:13;;;;;;;1.92;1.13;;;19.90;60.60;;;;;;4483404;31;20117;-68
2023/01/20 12:26:39;;;;;;;2.20;1.13;;;19.90;60.60;;;;;;4498454;31;20143;-67
2023/01/20 12:29:32;;;;;;;3.05;1.50;;;19.80;60.50;;;;;;4499223;31;20132;-68
2023/01/20 12:31:59;;;;;;;2.67;1.42;;;19.80;60.40;;;;;;4497766;31;20262;-68
2023/01/20 12:34:29;;;;;;;4.32;1.30;;;19.80;60.40;;;;;;4498226;31;20747;-68
2023/01/20 12:37:20;;;;;;;2.67;1.20;;;19.80;60.40;;;;;;4496623;31;20164;-67
2023/01/20 12:40:03;;;;;;;2.85;1.40;;;19.80;60.10;;;;;;4470481;31;20219;-67
2023/01/20 12:42:55;;;;;;;3.85;1.30;;;19.80;60.10;;;;;;4485837;31;20258;-67
2023/01/20 12:45:36;;;;;;;2.47;1.23;;;19.80;60.00;;;;;;4486032;31;20089;-66
2023/01/20 12:48:20;;;;;;;1.25;1.00;;;19.90;59.90;;;;;;4499114;31;20932;-67
2023/01/20 12:50:59;;;;;;;;;;;19.90;59.70;;;;;;4478824;31;20124;-67
2023/01/20 12:53:47;;;;;;;3.65;1.27;;;20.10;59.60;;;;;;4491144;31;20098;-67
2023/01/20 12:56:21;;;;;;;1.83;1.20;;;20.10;59.40;;;;;;4485622;31;20145;-67
2023/01/20 12:58:59;;;;;;;2.00;1.20;;;20.10;59.20;;;;;;4483973;31;20125;-67
2023/01/20 13:01:56;;;;;;;3.25;1.40;;;20.20;59.10;;;;;;4491152;31;20109;-68
2023/01/20 13:04:37;;;;;;;4.20;1.40;;;20.20;59.00;;;;;;4492943;31;20136;-69
2023/01/20 13:07:25;;;;;;;5.20;1.23;;;20.20;59.10;;;;;;4489311;31;20148;-68
2023/01/20 13:10:33;;;;;;;2.35;1.20;;;20.30;59.10;;;;;;4498255;31;20519;-69
2023/01/20 13:13:22;;;;;;;3.30;1.45;;;20.30;59.10;;;;;;4497117;31;20117;-68
2023/01/20 13:16:01;;;;;;;2.03;1.27;;;20.40;60.00;;;;;;4499641;31;20171;-67
2023/01/20 13:18:47;;;;;;;2.70;1.30;;;20.40;59.00;;;;;;4496475;31;20139;-67
2023/01/20 13:21:17;;;;;;;2.25;1.20;;;20.40;59.00;;;;;;4476694;31;20175;-67
2023/01/20 13:23:45;;;;;;;3.67;1.40;;;20.40;58.90;;;;;;4499139;31;20087;-69